createdAt,value
2016-04-29T00:00:10.767Z,1005.15
2016-04-29T00:01:10.802Z,1005.17
2016-04-29T00:02:10.820Z,1005.14
2016-04-29T00:03:10.838Z,1005.19
2016-04-29T00:04:10.856Z,1005.16
2016-04-29T00:05:10.875Z,1005.18
2016-04-29T00:06:10.893Z,1005.14
2016-04-29T00:07:10.911Z,1005.14
2016-04-29T00:08:10.929Z,1005.16
2016-04-29T00:09:10.948Z,1005.17
2016-04-29T00:10:10.966Z,1005.14
2016-04-29T00:11:10.985Z,1005.2
2016-04-29T00:12:11.003Z,1005.19
2016-04-29T00:13:11.020Z,1005.16
2016-04-29T00:14:11.054Z,1005.14
2016-04-29T00:15:11.112Z,1005.14
2016-04-29T00:16:11.170Z,1005.16
2016-04-29T00:17:11.229Z,1005.15
2016-04-29T00:18:11.286Z,1005.12
2016-04-29T00:19:11.336Z,1005.14
2016-04-29T00:20:11.368Z,1005.17
2016-04-29T00:21:11.400Z,1005.11
2016-04-29T00:22:11.434Z,1005.16
2016-04-29T00:23:11.465Z,1005.09
2016-04-29T00:24:11.495Z,1005.1
2016-04-29T00:25:11.519Z,1005.08
2016-04-29T00:26:11.541Z,1005.11
2016-04-29T00:27:11.565Z,1005.09
2016-04-29T00:28:11.587Z,1005.08
2016-04-29T00:29:11.626Z,1005.11
2016-04-29T00:30:11.631Z,1005.1
2016-04-29T00:31:11.650Z,1005.1
2016-04-29T00:32:11.671Z,1005.1
2016-04-29T00:33:11.691Z,1005.12
2016-04-29T00:34:11.711Z,1005.09
2016-04-29T00:35:11.730Z,1005.07
2016-04-29T00:36:11.749Z,1005.08
2016-04-29T00:37:11.768Z,1005.08
2016-04-29T00:38:11.787Z,1005.1
2016-04-29T00:39:11.806Z,1005.1
2016-04-29T00:40:11.826Z,1005.08
2016-04-29T00:41:11.844Z,1005.08
2016-04-29T00:42:11.878Z,1005.08
2016-04-29T00:43:11.881Z,1005.06
